Time;durP1;ratioP1;P1;durP2;ratioP2;P2;SDS_P1;SDS_P2;PMS_P1;PMS_P2;Temp;Humidity;BMP_temperature;BMP_pressure;BME280_temperature;BME280_humidity;BME280_pressure;Samples;Min_cycle;Max_cycle;Signal;HPM_P1;HPM_P2
2022/07/10 00:01:08;;;;;;;0.30;0.30;;;20.00;69.50;;;;;;5078192;28;20032;-73
2022/07/10 00:03:34;;;;;;;1.08;0.50;;;20.00;70.00;;;;;;5071789;28;20034;-73
2022/07/10 00:05:59;;;;;;;0.20;0.20;;;19.90;70.10;;;;;;5087253;27;20796;-73
2022/07/10 00:08:25;;;;;;;0.30;0.30;;;19.90;71.20;;;;;;5090743;28;20035;-74
2022/07/10 00:10:51;;;;;;;0.57;0.30;;;19.90;70.90;;;;;;5083984;27;20106;-74
2022/07/10 00:13:16;;;;;;;0.30;0.30;;;20.00;71.50;;;;;;5089259;28;20027;-76
2022/07/10 00:15:42;;;;;;;2.28;0.55;;;20.00;71.80;;;;;;5096548;27;20387;-74
2022/07/10 00:18:08;;;;;;;0.55;0.38;;;20.00;72.60;;;;;;5082447;28;20066;-75
2022/07/10 00:20:35;;;;;;;0.82;0.45;;;20.00;74.60;;;;;;5075238;27;20067;-74
2022/07/10 00:23:01;;;;;;;2.75;0.30;;;19.90;76.40;;;;;;5086601;27;20046;-75
2022/07/10 00:25:27;;;;;;;0.52;0.52;;;20.00;78.30;;;;;;5083309;28;20032;-74
2022/07/10 00:27:53;;;;;;;0.57;0.52;;;19.90;79.60;;;;;;5083461;28;20032;-74
2022/07/10 00:30:19;;;;;;;0.65;0.65;;;19.90;79.70;;;;;;5092776;28;20081;-73
2022/07/10 00:32:44;;;;;;;1.90;0.60;;;19.80;80.30;;;;;;5085166;28;20564;-73
2022/07/10 00:35:10;;;;;;;0.50;0.40;;;19.80;81.00;;;;;;5086502;28;20046;-73
2022/07/10 00:37:36;;;;;;;1.70;0.75;;;19.80;82.60;;;;;;5078204;28;20042;-73
2022/07/10 00:40:04;;;;;;;0.50;0.40;;;19.80;83.70;;;;;;5078554;28;20531;-73
2022/07/10 00:42:30;;;;;;;0.75;0.40;;;19.80;83.60;;;;;;5082865;27;20177;-74
2022/07/10 00:44:56;;;;;;;0.63;0.45;;;19.70;83.40;;;;;;5064946;27;20443;-74
2022/07/10 00:47:22;;;;;;;0.50;0.38;;;19.70;82.70;;;;;;5085996;28;20102;-72
2022/07/10 00:49:47;;;;;;;3.75;0.45;;;19.70;82.10;;;;;;5083888;28;20056;-72
2022/07/10 00:52:15;;;;;;;0.50;0.50;;;19.60;81.60;;;;;;5083415;27;20024;-72
2022/07/10 00:54:47;;;;;;;1.27;0.50;;;19.50;80.90;;;;;;5083171;28;20110;-73
2022/07/10 00:57:14;;;;;;;0.70;0.50;;;19.30;81.70;;;;;;5092584;28;20489;-72
2022/07/10 00:59:40;;;;;;;0.50;0.50;;;19.20;81.70;;;;;;5085270;27;20059;-72
2022/07/10 01:02:06;;;;;;;0.40;0.40;;;19.20;82.00;;;;;;5078908;28;20749;-72
2022/07/10 01:04:33;;;;;;;0.65;0.40;;;19.10;81.90;;;;;;5082370;28;20034;-72
2022/07/10 01:06:58;;;;;;;0.45;0.45;;;19.10;82.10;;;;;;5067892;28;20271;-73
2022/07/10 01:09:24;;;;;;;0.80;0.50;;;19.10;81.90;;;;;;5079839;28;20472;-72
2022/07/10 01:11:51;;;;;;;1.23;0.50;;;19.00;81.90;;;;;;5086078;28;20143;-71
2022/07/10 01:14:16;;;;;;;0.70;0.70;;;19.00;82.20;;;;;;5084030;28;20150;-71
2022/07/10 01:16:43;;;;;;;2.55;0.55;;;18.90;82.40;;;;;;5083150;28;20066;-72
2022/07/10 01:19:08;;;;;;;0.82;0.35;;;18.90;82.90;;;;;;5082907;28;20040;-72
2022/07/10 01:21:36;;;;;;;0.55;0.50;;;18.80;83.00;;;;;;5084495;28;20126;-72
2022/07/10 01:24:09;;;;;;;1.00;0.70;;;18.90;83.00;;;;;;5085623;28;20361;-76
2022/07/10 01:26:36;;;;;;;1.85;0.45;;;19.00;82.90;;;;;;5083950;28;20071;-75
2022/07/10 01:29:05;;;;;;;3.20;0.60;;;19.00;82.50;;;;;;5083588;28;20409;-74
2022/07/10 01:31:31;;;;;;;2.70;0.50;;;19.00;82.40;;;;;;5069779;28;20450;-74
2022/07/10 01:33:58;;;;;;;1.15;0.60;;;19.00;82.00;;;;;;5076664;28;20024;-75
2022/07/10 01:36:24;;;;;;;1.23;0.45;;;19.10;81.70;;;;;;5082370;28;20032;-76
2022/07/10 01:38:54;;;;;;;0.50;0.50;;;19.10;81.50;;;;;;5083476;28;20058;-76
2022/07/10 01:41:20;;;;;;;0.45;0.45;;;19.10;81.30;;;;;;5072375;28;20081;-75
2022/07/10 01:43:47;;;;;;;0.40;0.40;;;19.10;80.80;;;;;;5069015;28;20240;-76
2022/07/10 01:46:14;;;;;;;0.88;0.60;;;19.10;80.40;;;;;;5087857;28;20040;-76
2022/07/10 01:48:40;;;;;;;0.70;0.50;;;19.10;81.50;;;;;;5085420;28;20036;-76
2022/07/10 01:51:07;;;;;;;0.82;0.30;;;19.10;82.90;;;;;;5086148;28;20364;-75
2022/07/10 01:53:32;;;;;;;0.47;0.47;;;19.00;83.50;;;;;;5094275;28;20036;-75
2022/07/10 01:56:00;;;;;;;0.50;0.50;;;18.90;83.80;;;;;;5083127;28;20039;-75
2022/07/10 01:58:26;;;;;;;0.60;0.57;;;19.00;85.20;;;;;;5079201;28;20441;-75
2022/07/10 02:00:51;;;;;;;0.38;0.38;;;19.00;84.70;;;;;;5081949;28;20104;-75
2022/07/10 02:06:01;;;;;;;1.95;0.40;;;19.00;85.00;;;;;;5083319;28;20051;-75
2022/07/10 02:08:27;;;;;;;0.57;0.40;;;19.10;85.20;;;;;;5088575;28;20043;-75
2022/07/10 02:10:53;;;;;;;0.35;0.35;;;19.10;85.70;;;;;;5058296;28;20139;-75
2022/07/10 02:13:20;;;;;;;0.50;0.50;;;19.10;85.30;;;;;;5079782;28;20660;-75
2022/07/10 02:15:47;;;;;;;0.57;0.50;;;19.00;85.70;;;;;;5087546;28;20036;-75
2022/07/10 02:18:13;;;;;;;0.73;0.45;;;19.00;86.30;;;;;;5079643;28;20046;-75
2022/07/10 02:20:38;;;;;;;1.27;0.50;;;19.00;86.60;;;;;;5086099;28;20050;-75
2022/07/10 02:23:06;;;;;;;0.85;0.60;;;19.00;87.20;;;;;;5082172;28;20039;-76
2022/07/10 02:25:32;;;;;;;2.80;0.68;;;18.90;87.90;;;;;;5070196;28;20113;-74
2022/07/10 02:27:57;;;;;;;0.45;0.43;;;18.70;88.90;;;;;;5076017;28;20048;-75
2022/07/10 02:30:23;;;;;;;0.68;0.38;;;18.50;89.40;;;;;;5085765;28;20055;-75
2022/07/10 02:32:48;;;;;;;0.73;0.60;;;18.50;90.10;;;;;;5081378;28;20064;-78
2022/07/10 02:35:14;;;;;;;0.63;0.50;;;18.30;90.60;;;;;;5086188;28;20031;-78
2022/07/10 02:37:40;;;;;;;0.60;0.40;;;18.20;90.80;;;;;;5086120;28;20036;-75
2022/07/10 02:40:06;;;;;;;0.82;0.60;;;18.20;91.10;;;;;;5084588;28;20051;-77
2022/07/10 02:42:32;;;;;;;1.00;0.60;;;18.20;91.40;;;;;;5080841;28;20054;-75
2022/07/10 02:44:57;;;;;;;1.17;0.47;;;18.10;91.90;;;;;;5088665;28;20040;-75
2022/07/10 02:47:23;;;;;;;0.68;0.50;;;18.10;92.60;;;;;;5082324;28;20048;-78
2022/07/10 02:49:49;;;;;;;0.50;0.50;;;18.10;93.00;;;;;;5089727;28;20130;-75
2022/07/10 02:52:14;;;;;;;0.50;0.50;;;18.10;92.60;;;;;;5085084;28;20054;-75
2022/07/10 02:54:40;;;;;;;0.50;0.50;;;18.20;92.70;;;;;;5092133;28;20043;-75
2022/07/10 02:57:05;;;;;;;0.60;0.60;;;18.30;92.60;;;;;;5086790;28;20067;-75
2022/07/10 02:59:31;;;;;;;0.70;0.40;;;18.20;92.80;;;;;;5090894;27;20498;-75
2022/07/10 03:01:57;;;;;;;0.75;0.50;;;18.20;92.90;;;;;;5083941;28;20058;-74
2022/07/10 03:04:22;;;;;;;0.60;0.60;;;18.10;93.00;;;;;;5090991;28;20130;-75
2022/07/10 03:06:48;;;;;;;2.72;0.80;;;18.10;93.10;;;;;;5089759;28;20036;-77
2022/07/10 03:09:13;;;;;;;0.40;0.40;;;18.20;93.30;;;;;;5091499;28;20517;-76
2022/07/10 03:11:39;;;;;;;0.65;0.50;;;18.10;93.20;;;;;;5071996;28;20047;-75
2022/07/10 03:14:05;;;;;;;0.57;0.57;;;18.20;93.80;;;;;;5088684;27;20453;-75
2022/07/10 03:16:32;;;;;;;0.73;0.63;;;18.10;93.50;;;;;;5088440;28;20185;-75
2022/07/10 03:18:57;;;;;;;2.15;0.70;;;18.10;93.80;;;;;;5083029;28;20433;-75
2022/07/10 03:21:23;;;;;;;1.55;0.55;;;18.10;94.10;;;;;;5087593;28;20031;-75
2022/07/10 03:23:50;;;;;;;2.50;0.65;;;18.00;94.10;;;;;;5090980;28;20032;-74
2022/07/10 03:26:15;;;;;;;0.63;0.57;;;18.00;94.40;;;;;;5090526;28;20093;-75
2022/07/10 03:28:41;;;;;;;0.95;0.68;;;17.90;94.70;;;;;;5071583;28;20040;-76
2022/07/10 03:31:07;;;;;;;0.60;0.60;;;17.80;94.90;;;;;;5068355;28;20596;-78
2022/07/10 03:33:33;;;;;;;0.95;0.60;;;17.80;95.40;;;;;;5065231;28;20036;-75
2022/07/10 03:36:01;;;;;;;0.50;0.47;;;17.80;95.40;;;;;;5068635;28;20039;-74
2022/07/10 03:38:27;;;;;;;10.70;2.22;;;17.80;95.70;;;;;;5069383;28;20036;-75
2022/07/10 03:40:53;;;;;;;2.10;0.57;;;17.90;95.70;;;;;;5064814;28;20082;-75
2022/07/10 03:43:18;;;;;;;0.47;0.47;;;17.90;95.70;;;;;;5068441;28;20064;-75
2022/07/10 03:45:44;;;;;;;0.85;0.73;;;17.90;95.70;;;;;;5065009;28;20033;-76
2022/07/10 03:48:10;;;;;;;2.25;0.70;;;18.00;95.70;;;;;;5065911;28;21259;-75
2022/07/10 03:50:35;;;;;;;0.90;0.60;;;18.10;95.50;;;;;;5063850;28;20044;-75
2022/07/10 03:53:01;;;;;;;1.13;0.50;;;18.20;95.40;;;;;;5064062;28;20374;-75
2022/07/10 03:55:27;;;;;;;1.33;0.57;;;18.20;95.40;;;;;;5064548;28;20480;-75
2022/07/10 03:58:02;;;;;;;1.98;0.57;;;18.20;95.40;;;;;;5064865;28;20558;-76
2022/07/10 04:00:28;;;;;;;0.52;0.50;;;18.20;95.50;;;;;;5070621;28;20412;-75
2022/07/10 04:03:05;;;;;;;1.23;0.50;;;18.20;95.80;;;;;;5066878;28;20108;-75
2022/07/10 04:05:31;;;;;;;0.82;0.68;;;18.20;95.90;;;;;;5065257;28;20040;-75
2022/07/10 04:07:58;;;;;;;1.92;0.68;;;18.20;95.80;;;;;;5064771;28;20374;-75
2022/07/10 04:10:25;;;;;;;3.63;0.80;;;18.30;95.90;;;;;;5064197;28;20036;-75
2022/07/10 04:12:51;;;;;;;2.92;0.80;;;18.30;95.80;;;;;;5065858;28;20035;-75
2022/07/10 04:15:17;;;;;;;2.25;0.60;;;18.40;95.80;;;;;;5061377;28;20040;-75
2022/07/10 04:17:43;;;;;;;1.65;0.60;;;18.40;95.60;;;;;;5064875;28;20036;-75
2022/07/10 04:20:09;;;;;;;0.77;0.50;;;18.40;95.60;;;;;;5065872;28;20102;-75
2022/07/10 04:22:35;;;;;;;0.65;0.65;;;18.30;95.80;;;;;;5066720;28;20032;-75
2022/07/10 04:25:01;;;;;;;4.00;0.63;;;18.30;95.90;;;;;;5063540;28;20580;-74
2022/07/10 04:27:27;;;;;;;3.17;0.93;;;18.30;96.20;;;;;;5078092;28;20118;-77
2022/07/10 04:29:53;;;;;;;0.73;0.65;;;18.20;96.60;;;;;;5087353;28;20910;-77
2022/07/10 04:32:18;;;;;;;2.25;0.80;;;18.10;96.80;;;;;;5088701;27;20028;-77
2022/07/10 04:34:44;;;;;;;1.30;0.70;;;18.10;97.20;;;;;;5086508;28;20032;-77
2022/07/10 04:37:10;;;;;;;1.23;0.57;;;18.10;97.40;;;;;;5074512;28;20464;-77
2022/07/10 04:39:37;;;;;;;0.40;0.40;;;18.00;97.50;;;;;;5087655;27;20052;-76
2022/07/10 04:42:04;;;;;;;0.60;0.43;;;18.00;97.80;;;;;;5086711;28;20727;-78
2022/07/10 04:44:30;;;;;;;0.70;0.70;;;18.00;97.80;;;;;;5083940;28;20035;-76
2022/07/10 04:46:56;;;;;;;0.77;0.73;;;18.00;97.70;;;;;;5082796;28;20040;-76
2022/07/10 04:49:22;;;;;;;6.22;1.05;;;18.10;98.00;;;;;;5092925;28;20038;-76
2022/07/10 04:51:47;;;;;;;1.17;0.68;;;18.30;97.60;;;;;;5087334;28;20093;-77
2022/07/10 04:54:13;;;;;;;1.38;0.73;;;18.30;97.50;;;;;;5077833;28;20047;-78
2022/07/10 04:56:39;;;;;;;0.70;0.70;;;18.40;97.30;;;;;;5082202;28;20028;-76
2022/07/10 04:59:04;;;;;;;0.70;0.70;;;18.50;97.10;;;;;;5075483;28;20487;-77
2022/07/10 05:01:30;;;;;;;1.67;0.68;;;18.60;96.80;;;;;;5087336;28;20491;-75
2022/07/10 05:03:56;;;;;;;9.00;1.00;;;18.50;96.60;;;;;;5087707;28;20115;-75
2022/07/10 05:06:21;;;;;;;0.70;0.70;;;18.60;96.60;;;;;;5087133;28;20040;-76
2022/07/10 05:08:47;;;;;;;0.70;0.70;;;18.70;96.20;;;;;;5082180;28;20048;-76
2022/07/10 05:11:12;;;;;;;4.15;0.95;;;18.90;96.00;;;;;;5084814;28;20035;-76
2022/07/10 05:13:38;;;;;;;6.03;1.45;;;19.00;96.10;;;;;;5088003;28;20032;-76
2022/07/10 05:16:05;;;;;;;2.05;0.80;;;19.10;95.50;;;;;;5079165;28;20065;-75
2022/07/10 05:18:30;;;;;;;2.15;1.15;;;19.20;95.30;;;;;;5080440;28;20036;-76
2022/07/10 05:20:56;;;;;;;9.25;1.02;;;19.40;94.60;;;;;;5083259;28;20028;-75
2022/07/10 05:23:22;;;;;;;2.25;0.90;;;19.50;94.00;;;;;;5092244;27;20032;-76
2022/07/10 05:25:48;;;;;;;2.08;0.95;;;19.70;93.50;;;;;;5090784;28;20128;-77
2022/07/10 05:28:14;;;;;;;2.33;0.90;;;19.80;92.90;;;;;;5069978;28;20044;-76
2022/07/10 05:30:43;;;;;;;3.55;1.13;;;19.80;92.90;;;;;;5084061;28;21275;-76
2022/07/10 05:33:09;;;;;;;1.80;0.90;;;19.90;93.20;;;;;;5065111;28;20047;-77
2022/07/10 05:35:35;;;;;;;1.25;0.70;;;20.10;93.20;;;;;;5081390;28;20040;-76
2022/07/10 05:38:01;;;;;;;1.52;0.98;;;20.10;93.10;;;;;;5081771;28;20810;-75
2022/07/10 05:40:27;;;;;;;1.40;0.95;;;20.10;93.30;;;;;;5079107;28;20044;-74
2022/07/10 05:42:53;;;;;;;1.33;0.98;;;20.20;92.10;;;;;;5089405;28;20031;-75
2022/07/10 05:45:19;;;;;;;0.90;0.90;;;20.20;92.10;;;;;;5067131;28;20035;-75
2022/07/10 05:47:44;;;;;;;1.20;1.05;;;20.30;91.60;;;;;;5081242;28;20031;-75
2022/07/10 05:50:11;;;;;;;1.73;0.77;;;20.40;91.50;;;;;;5077272;28;20082;-75
2022/07/10 05:52:37;;;;;;;1.45;1.23;;;20.40;91.60;;;;;;5089849;28;20039;-74
2022/07/10 05:55:04;;;;;;;1.30;0.90;;;20.50;90.80;;;;;;5087246;28;20039;-75
2022/07/10 05:57:31;;;;;;;1.17;1.05;;;20.60;90.40;;;;;;5083151;28;20043;-76
2022/07/10 05:59:57;;;;;;;2.17;1.02;;;20.60;89.90;;;;;;5082294;28;20067;-77
2022/07/10 06:02:22;;;;;;;1.20;1.10;;;20.60;90.10;;;;;;5083021;28;20230;-76
2022/07/10 06:04:49;;;;;;;2.50;1.23;;;20.70;90.30;;;;;;5080537;28;20070;-74
2022/07/10 06:07:15;;;;;;;1.20;1.10;;;20.70;89.80;;;;;;5081579;28;20028;-73
2022/07/10 06:09:41;;;;;;;2.22;1.10;;;20.80;89.90;;;;;;5088004;28;20071;-76
2022/07/10 06:12:07;;;;;;;3.75;1.10;;;20.90;89.70;;;;;;5071334;28;21748;-73
2022/07/10 06:14:33;;;;;;;3.22;1.10;;;20.90;89.50;;;;;;5084099;28;20150;-72
2022/07/10 06:16:59;;;;;;;1.60;1.02;;;20.90;89.70;;;;;;5082827;28;20044;-71
2022/07/10 06:19:24;;;;;;;2.15;1.38;;;21.00;88.00;;;;;;5071782;28;20501;-70
2022/07/10 06:22:30;;;;;;;5.20;1.10;;;21.10;86.80;;;;;;5083186;28;20032;-70
2022/07/10 06:24:36;;;;;;;2.88;1.20;;;21.20;86.90;;;;;;5083307;28;20040;-72
2022/07/10 06:27:02;;;;;;;1.33;1.00;;;21.30;86.90;;;;;;5079668;28;20051;-71
2022/07/10 06:29:27;;;;;;;2.38;1.10;;;21.30;86.00;;;;;;5083547;27;20480;-69
2022/07/10 06:31:53;;;;;;;2.08;0.80;;;21.30;85.20;;;;;;5088139;27;20452;-70
2022/07/10 06:34:19;;;;;;;1.00;1.00;;;21.50;84.40;;;;;;5086546;28;20066;-70
2022/07/10 06:36:45;;;;;;;1.73;0.88;;;21.60;82.70;;;;;;5087201;28;20054;-70
2022/07/10 06:39:10;;;;;;;1.70;0.85;;;21.70;81.70;;;;;;5094902;28;20055;-74
2022/07/10 06:41:36;;;;;;;1.30;1.10;;;21.80;79.80;;;;;;5081484;28;20032;-70
2022/07/10 06:44:03;;;;;;;0.77;0.77;;;21.80;81.60;;;;;;5085986;28;20032;-81
2022/07/10 06:46:29;;;;;;;3.45;0.90;;;22.00;81.40;;;;;;5086072;28;20065;-71
2022/07/10 06:48:54;;;;;;;0.70;0.70;;;21.90;80.70;;;;;;5082776;27;20032;-72
2022/07/10 06:51:20;;;;;;;1.65;0.90;;;21.70;80.50;;;;;;5085362;27;20252;-73
2022/07/10 06:53:46;;;;;;;1.67;0.80;;;21.60;81.80;;;;;;5091402;28;20046;-84
2022/07/10 06:56:13;;;;;;;2.03;0.98;;;21.70;80.90;;;;;;5084657;28;20035;-81
2022/07/10 06:58:39;;;;;;;0.90;0.77;;;21.80;82.40;;;;;;5071196;28;20040;-72
2022/07/10 07:01:05;;;;;;;0.88;0.88;;;21.70;81.30;;;;;;5087351;28;20047;-74
2022/07/10 07:03:30;;;;;;;1.35;0.80;;;21.80;83.00;;;;;;5088757;28;20638;-75
2022/07/10 07:05:56;;;;;;;3.72;0.80;;;21.90;83.40;;;;;;5078173;28;20052;-74
2022/07/10 07:08:22;;;;;;;3.25;0.90;;;22.00;82.60;;;;;;5091136;28;20094;-75
2022/07/10 07:10:47;;;;;;;1.45;1.23;;;22.10;80.90;;;;;;5086460;28;20035;-75
2022/07/10 07:13:13;;;;;;;1.17;0.90;;;22.20;80.60;;;;;;5084804;28;20052;-73
2022/07/10 07:15:41;;;;;;;0.68;0.60;;;22.10;80.50;;;;;;5083019;28;20527;-71
2022/07/10 07:18:08;;;;;;;0.50;0.50;;;21.90;80.30;;;;;;5087009;28;20068;-74
2022/07/10 07:23:21;;;;;;;0.95;0.70;;;21.80;82.90;;;;;;5091025;27;20133;-75
2022/07/10 07:25:46;;;;;;;0.82;0.80;;;21.90;83.20;;;;;;5090138;28;20096;-75
2022/07/10 07:28:15;;;;;;;0.95;0.77;;;22.20;79.80;;;;;;5086870;27;20036;-73
2022/07/10 07:30:44;;;;;;;0.40;0.40;;;22.20;78.40;;;;;;5082467;28;20096;-78
2022/07/10 07:33:09;;;;;;;1.83;0.77;;;22.10;77.00;;;;;;5074525;28;20047;-77
2022/07/10 07:35:35;;;;;;;0.75;0.68;;;22.10;78.80;;;;;;5087540;28;20036;-80
2022/07/10 07:38:02;;;;;;;0.60;0.60;;;22.20;80.70;;;;;;5082348;28;20617;-77
2022/07/10 07:40:28;;;;;;;2.85;1.02;;;22.20;80.80;;;;;;5085228;28;20067;-82
2022/07/10 07:42:55;;;;;;;0.85;0.73;;;22.10;80.30;;;;;;5082873;27;20049;-81
2022/07/10 07:45:22;;;;;;;6.75;0.73;;;22.20;81.70;;;;;;5067718;28;20519;-76
2022/07/10 07:47:49;;;;;;;7.28;1.50;;;22.30;82.10;;;;;;5086733;27;20554;-77
2022/07/10 07:50:22;;;;;;;1.20;0.90;;;22.30;83.10;;;;;;5087309;28;20523;-77
2022/07/10 07:52:49;;;;;;;8.05;0.80;;;22.30;79.60;;;;;;5085466;27;20419;-68
2022/07/10 07:55:16;;;;;;;0.55;0.55;;;22.30;79.40;;;;;;5073529;28;20222;-80
2022/07/10 07:57:43;;;;;;;0.68;0.60;;;22.30;74.10;;;;;;5082886;27;20389;-74
2022/07/10 08:00:10;;;;;;;0.82;0.60;;;22.40;75.90;;;;;;5091325;27;20048;-75
2022/07/10 08:02:36;;;;;;;1.00;0.60;;;22.40;76.60;;;;;;5095337;27;20084;-76
2022/07/10 08:05:04;;;;;;;3.40;0.50;;;22.40;77.70;;;;;;5091062;27;20459;-74
2022/07/10 08:07:42;;;;;;;0.73;0.68;;;22.20;75.00;;;;;;5087034;28;20496;-74
2022/07/10 08:10:10;;;;;;;0.50;0.50;;;22.00;76.00;;;;;;5075815;27;20044;-75
2022/07/10 08:12:35;;;;;;;0.68;0.50;;;22.00;77.70;;;;;;5079162;27;20059;-73
2022/07/10 08:15:02;;;;;;;0.90;0.65;;;21.90;76.40;;;;;;5069838;28;20465;-74
2022/07/10 08:17:28;;;;;;;0.60;0.55;;;21.80;75.30;;;;;;5090788;28;20506;-75
2022/07/10 08:19:54;;;;;;;1.65;0.60;;;21.70;76.40;;;;;;5087937;27;20153;-75
2022/07/10 08:22:19;;;;;;;5.78;0.77;;;21.70;76.40;;;;;;5090860;28;20094;-74
2022/07/10 08:24:45;;;;;;;1.75;0.77;;;21.80;75.60;;;;;;5086149;28;20032;-73
2022/07/10 08:27:12;;;;;;;0.90;0.43;;;22.00;76.60;;;;;;5086586;27;20168;-73
2022/07/10 08:29:38;;;;;;;2.47;0.60;;;22.20;76.80;;;;;;5091198;28;20043;-74
2022/07/10 08:32:04;;;;;;;1.30;0.50;;;22.30;77.50;;;;;;5085280;28;20511;-79
2022/07/10 08:34:31;;;;;;;0.63;0.40;;;22.30;73.20;;;;;;5086833;28;20042;-76
2022/07/10 08:36:57;;;;;;;0.40;0.40;;;21.90;73.60;;;;;;5088653;28;20062;-73
2022/07/10 08:39:23;;;;;;;2.30;0.70;;;21.80;77.60;;;;;;5081262;27;20595;-77
2022/07/10 08:41:51;;;;;;;0.90;0.90;;;22.10;79.40;;;;;;5080897;28;20078;-75
2022/07/10 08:44:17;;;;;;;0.88;0.60;;;22.40;78.60;;;;;;5073986;27;21857;-74
2022/07/10 08:46:44;;;;;;;1.60;1.00;;;22.30;79.60;;;;;;5089098;28;20042;-78
2022/07/10 08:49:16;;;;;;;0.82;0.80;;;22.30;79.40;;;;;;5083591;27;20392;-74
2022/07/10 08:52:00;;;;;;;0.50;0.50;;;22.20;79.30;;;;;;5070810;28;20035;-74
2022/07/10 08:54:29;;;;;;;2.30;0.70;;;22.30;80.10;;;;;;5079340;28;20032;-75
2022/07/10 08:56:57;;;;;;;0.50;0.50;;;22.40;81.50;;;;;;5081482;28;20032;-76
2022/07/10 08:59:23;;;;;;;1.63;0.50;;;22.40;79.50;;;;;;5085870;27;20050;-75
2022/07/10 09:01:49;;;;;;;0.65;0.65;;;22.50;78.30;;;;;;5086756;27;20511;-74
2022/07/10 09:04:19;;;;;;;2.83;0.77;;;22.70;78.80;;;;;;5081738;28;20078;-74
2022/07/10 09:06:45;;;;;;;0.30;0.30;;;22.90;76.20;;;;;;5088629;27;21351;-75
2022/07/10 09:09:11;;;;;;;0.98;0.45;;;22.90;74.70;;;;;;5081290;27;20070;-76
2022/07/10 09:11:42;;;;;;;0.40;0.32;;;22.90;73.90;;;;;;5077809;27;20653;-78
2022/07/10 09:14:14;;;;;;;0.70;0.50;;;22.60;72.70;;;;;;5083088;28;20064;-80
2022/07/10 09:16:40;;;;;;;;;;;22.40;73.60;;;;;;5051904;28;20064;-76
2022/07/10 09:19:27;;;;;;;0.88;0.50;;;22.30;74.90;;;;;;5075022;28;19924;-74
2022/07/10 09:21:59;;;;;;;0.55;0.40;;;22.40;75.90;;;;;;5085988;27;20035;-73
2022/07/10 09:24:25;;;;;;;0.50;0.50;;;22.50;74.20;;;;;;5088607;28;20594;-70
2022/07/10 09:26:56;;;;;;;1.88;0.40;;;22.50;73.70;;;;;;5076239;28;20108;-75
2022/07/10 09:29:23;;;;;;;2.88;0.32;;;22.60;75.60;;;;;;5082944;28;20050;-75
2022/07/10 09:31:52;;;;;;;1.67;0.60;;;22.80;71.60;;;;;;5084717;28;20435;-76
2022/07/10 09:34:37;;;;;;;1.40;0.25;;;22.80;74.40;;;;;;5081761;28;20039;-72
2022/07/10 09:37:24;;;;;;;1.15;0.60;;;23.00;70.80;;;;;;5089563;28;20035;-75
2022/07/10 09:40:05;;;;;;;1.75;0.40;;;23.20;71.80;;;;;;5073355;28;20043;-74
2022/07/10 09:42:38;;;;;;;0.30;0.30;;;23.40;67.70;;;;;;5088058;28;20047;-73
2022/07/10 09:45:09;;;;;;;1.85;0.40;;;23.10;66.60;;;;;;5087839;28;20473;-77
2022/07/10 09:47:35;;;;;;;0.80;0.28;;;23.00;67.00;;;;;;5081213;28;20040;-73
2022/07/10 09:50:01;;;;;;;1.17;0.73;;;23.00;68.80;;;;;;5074457;28;20031;-79
2022/07/10 09:52:28;;;;;;;7.07;1.20;;;23.10;69.30;;;;;;5076490;28;20043;-74
2022/07/10 09:54:55;;;;;;;3.47;1.02;;;23.20;68.70;;;;;;5088521;28;20063;-72
2022/07/10 09:57:27;;;;;;;1.88;0.35;;;23.10;67.10;;;;;;5084961;28;20032;-76
2022/07/10 09:59:55;;;;;;;0.55;0.25;;;23.10;69.70;;;;;;5066015;28;20684;-75
2022/07/10 10:02:21;;;;;;;2.55;0.47;;;23.40;67.50;;;;;;5078731;28;20057;-79
2022/07/10 10:04:49;;;;;;;0.70;0.40;;;23.50;68.20;;;;;;5091479;27;20044;-81
2022/07/10 10:07:18;;;;;;;1.52;0.35;;;23.60;66.90;;;;;;5085259;28;20128;-79
2022/07/10 10:09:56;;;;;;;0.80;0.38;;;23.70;68.20;;;;;;5088478;27;20106;-75
2022/07/10 10:12:45;;;;;;;0.40;0.40;;;23.70;65.00;;;;;;5070659;28;20028;-76
2022/07/10 10:15:11;;;;;;;1.38;0.30;;;23.80;64.10;;;;;;5096547;28;20448;-74
2022/07/10 10:17:40;;;;;;;3.17;0.40;;;23.80;59.90;;;;;;5091166;28;20593;-73
2022/07/10 10:22:55;;;;;;;2.20;0.30;;;23.70;61.80;;;;;;5087042;27;20059;-75
2022/07/10 10:25:23;;;;;;;0.98;0.30;;;23.70;63.00;;;;;;5081407;27;20110;-74
2022/07/10 10:27:50;;;;;;;0.38;0.30;;;23.80;63.20;;;;;;5071242;28;20036;-77
2022/07/10 10:30:16;;;;;;;1.48;0.30;;;23.90;63.00;;;;;;5086040;28;20549;-81
2022/07/10 10:32:42;;;;;;;0.63;0.40;;;24.20;61.40;;;;;;5084690;27;20047;-78
2022/07/10 10:35:10;;;;;;;0.30;0.22;;;24.20;63.10;;;;;;5088119;27;20020;-76
2022/07/10 10:37:37;;;;;;;1.05;0.28;;;24.20;63.20;;;;;;5070076;28;20428;-78
2022/07/10 10:40:08;;;;;;;3.67;0.30;;;24.20;61.10;;;;;;5083821;28;20047;-77
2022/07/10 10:42:35;;;;;;;2.92;0.32;;;24.30;63.50;;;;;;5078260;28;20028;-74
2022/07/10 10:45:29;;;;;;;0.93;0.60;;;24.30;62.00;;;;;;5083649;28;20548;-76
2022/07/10 10:48:12;;;;;;;0.73;0.63;;;24.20;61.00;;;;;;5088838;28;20044;-74
2022/07/10 10:50:56;;;;;;;0.52;0.40;;;24.10;60.70;;;;;;5082158;28;20036;-73
2022/07/10 10:53:26;;;;;;;8.27;0.68;;;24.10;62.60;;;;;;5079369;28;20040;-74
2022/07/10 10:56:03;;;;;;;1.65;0.40;;;24.20;58.10;;;;;;5080627;28;20040;-72
2022/07/10 10:58:39;;;;;;;1.23;0.30;;;24.20;58.60;;;;;;5080518;28;20051;-72
2022/07/10 11:01:28;;;;;;;3.25;0.40;;;24.30;60.60;;;;;;5085375;28;20054;-85
2022/07/10 11:04:09;;;;;;;0.52;0.30;;;24.40;59.90;;;;;;5088748;28;20034;-81
2022/07/10 11:06:52;;;;;;;2.85;0.47;;;24.60;59.90;;;;;;5083691;27;20692;-75
2022/07/10 11:09:22;;;;;;;3.30;0.40;;;24.50;59.10;;;;;;5085918;28;20051;-70
2022/07/10 11:12:01;;;;;;;4.38;0.40;;;24.30;58.20;;;;;;5083788;28;20082;-75
2022/07/10 11:14:28;;;;;;;0.40;0.30;;;24.30;60.40;;;;;;5075325;28;20036;-78
2022/07/10 11:16:57;;;;;;;3.72;0.40;;;24.20;58.90;;;;;;5087989;28;20116;-76
2022/07/10 11:19:25;;;;;;;2.17;0.50;;;23.80;60.30;;;;;;5086933;27;20042;-76
2022/07/10 11:22:03;;;;;;;2.70;0.50;;;23.40;61.20;;;;;;5085080;28;20047;-77
2022/07/10 11:24:46;;;;;;;0.30;0.30;;;23.10;61.90;;;;;;5087859;28;20405;-73
2022/07/10 11:27:19;;;;;;;4.80;0.52;;;22.90;64.30;;;;;;5089651;27;20051;-73
2022/07/10 11:29:47;;;;;;;4.20;0.30;;;22.60;63.40;;;;;;5069271;28;20673;-73
2022/07/10 11:32:16;;;;;;;0.50;0.50;;;22.50;65.70;;;;;;5081886;28;20052;-77
2022/07/10 11:34:42;;;;;;;4.32;0.38;;;22.40;64.40;;;;;;5083208;28;20504;-74
2022/07/10 11:37:15;;;;;;;0.50;0.32;;;22.40;64.90;;;;;;5087335;28;20025;-77
2022/07/10 11:39:41;;;;;;;4.05;0.40;;;22.40;65.30;;;;;;5086281;28;20593;-72
2022/07/10 11:42:07;;;;;;;1.23;0.30;;;22.70;63.30;;;;;;5088398;27;20036;-77
2022/07/10 11:44:33;;;;;;;4.00;0.45;;;23.00;61.20;;;;;;5080537;28;20374;-78
2022/07/10 11:46:59;;;;;;;6.65;0.73;;;23.30;59.10;;;;;;5077370;27;20048;-76
2022/07/10 11:49:26;;;;;;;0.85;0.40;;;23.40;58.70;;;;;;5072775;28;20036;-73
2022/07/10 11:51:53;;;;;;;10.27;1.00;;;23.50;58.70;;;;;;5074810;27;20045;-76
2022/07/10 11:54:19;;;;;;;4.15;0.47;;;23.70;58.20;;;;;;5073702;28;20040;-75
2022/07/10 11:56:51;;;;;;;5.95;0.40;;;23.70;56.60;;;;;;5071711;28;20059;-74
2022/07/10 11:59:18;;;;;;;1.52;0.50;;;23.60;56.70;;;;;;5084637;27;20036;-73
2022/07/10 12:01:48;;;;;;;1.27;0.40;;;23.30;58.30;;;;;;5074627;28;20035;-72
2022/07/10 12:04:16;;;;;;;0.38;0.35;;;23.60;59.60;;;;;;5081515;28;20063;-74
2022/07/10 12:06:44;;;;;;;2.83;0.50;;;23.80;59.50;;;;;;5081995;28;20039;-78
2022/07/10 12:09:13;;;;;;;2.80;0.63;;;23.80;58.20;;;;;;5084164;28;20051;-72
2022/07/10 12:11:40;;;;;;;2.28;0.40;;;23.60;59.10;;;;;;5083127;27;20016;-73
2022/07/10 12:14:18;;;;;;;0.98;0.30;;;23.50;59.70;;;;;;5073989;28;20036;-74
2022/07/10 12:16:52;;;;;;;4.38;0.40;;;23.60;62.50;;;;;;5083618;28;20040;-73
2022/07/10 12:19:22;;;;;;;2.95;0.45;;;23.70;59.40;;;;;;5084412;28;20153;-75
2022/07/10 12:21:48;;;;;;;1.45;0.40;;;23.70;59.40;;;;;;5083949;28;20427;-73
2022/07/10 12:24:16;;;;;;;1.45;0.40;;;23.60;58.60;;;;;;5085046;28;20093;-73
2022/07/10 12:26:44;;;;;;;1.00;0.57;;;23.50;60.70;;;;;;5090723;27;20043;-82
2022/07/10 12:29:21;;;;;;;1.65;0.50;;;23.50;62.70;;;;;;5088342;28;20075;-74
2022/07/10 12:31:49;;;;;;;1.08;0.60;;;23.60;58.60;;;;;;5083480;27;20031;-73
2022/07/10 12:34:15;;;;;;;7.25;0.60;;;23.40;60.50;;;;;;5089806;27;20047;-73
2022/07/10 12:36:46;;;;;;;3.72;0.60;;;23.50;61.30;;;;;;5089130;27;20036;-72
2022/07/10 12:39:14;;;;;;;2.08;0.52;;;23.70;59.80;;;;;;5085325;27;20082;-78
2022/07/10 12:42:02;;;;;;;2.03;0.32;;;23.80;60.50;;;;;;5084480;28;20032;-70
2022/07/10 12:44:47;;;;;;;6.30;0.60;;;23.60;60.50;;;;;;5080647;28;20035;-71
2022/07/10 12:47:15;;;;;;;0.98;0.45;;;23.50;59.80;;;;;;5078454;28;20483;-72
2022/07/10 12:49:57;;;;;;;1.45;0.52;;;23.40;59.30;;;;;;5082408;27;20023;-74
2022/07/10 12:52:32;;;;;;;2.20;0.50;;;23.00;59.70;;;;;;5086852;27;20032;-76
2022/07/10 12:55:09;;;;;;;1.45;0.60;;;22.80;58.70;;;;;;5083195;28;20025;-79
2022/07/10 12:57:44;;;;;;;1.02;0.75;;;22.80;61.00;;;;;;5080251;28;22181;-76
2022/07/10 13:00:13;;;;;;;1.58;0.70;;;23.00;59.80;;;;;;5098110;27;20079;-80